Time;durP1;ratioP1;P1;durP2;ratioP2;P2;SDS_P1;SDS_P2;PMS_P1;PMS_P2;Temp;Humidity;BMP_temperature;BMP_pressure;BME280_temperature;BME280_humidity;BME280_pressure;Samples;Min_cycle;Max_cycle;Signal;HPM_P1;HPM_P2
2022/11/26 04:01:30;;;;;;;0.60;0.60;;;8.40;86.70;;;;;;5673762;23;20536;-72
2022/11/26 04:03:57;;;;;;;0.67;0.67;;;8.40;86.60;;;;;;4975668;28;20461;-72
2022/11/26 04:06:23;;;;;;;0.70;0.70;;;8.40;86.50;;;;;;4975562;28;20446;-73
2022/11/26 04:08:50;;;;;;;0.67;0.67;;;8.30;86.40;;;;;;4975610;28;20442;-73
2022/11/26 04:11:17;;;;;;;0.70;0.70;;;8.30;86.10;;;;;;4975416;28;20466;-72
2022/11/26 04:13:50;;;;;;;0.70;0.70;;;8.30;86.00;;;;;;4976087;28;20519;-72
2022/11/26 04:16:16;;;;;;;0.70;0.70;;;8.30;85.60;;;;;;4975157;28;20453;-72
2022/11/26 04:18:44;;;;;;;0.80;0.80;;;8.20;85.70;;;;;;4975326;28;20448;-73
2022/11/26 04:21:11;;;;;;;0.60;0.60;;;8.10;85.70;;;;;;4975302;28;20481;-73
2022/11/26 04:23:38;;;;;;;0.70;0.70;;;8.10;85.90;;;;;;4975260;28;20446;-73
2022/11/26 04:26:05;;;;;;;0.73;0.73;;;8.10;85.60;;;;;;4975239;28;20442;-72
2022/11/26 04:28:31;;;;;;;0.70;0.70;;;8.00;85.60;;;;;;4975166;28;20801;-73
2022/11/26 04:30:58;;;;;;;0.63;0.63;;;8.00;85.80;;;;;;4975107;28;20477;-73
2022/11/26 04:33:26;;;;;;;0.70;0.70;;;7.90;85.80;;;;;;4974640;28;20462;-73
2022/11/26 04:35:55;;;;;;;0.70;0.70;;;7.90;85.80;;;;;;4975040;28;20457;-73
2022/11/26 04:38:22;;;;;;;0.70;0.70;;;7.90;85.90;;;;;;4975038;28;20450;-73
2022/11/26 04:40:48;;;;;;;0.87;0.70;;;7.90;85.70;;;;;;4975383;28;20486;-72
2022/11/26 04:43:15;;;;;;;0.80;0.80;;;7.90;85.80;;;;;;4974998;28;20450;-73
2022/11/26 04:45:42;;;;;;;0.60;0.60;;;7.90;85.70;;;;;;4974928;28;20473;-73
2022/11/26 04:48:08;;;;;;;0.60;0.60;;;7.80;85.70;;;;;;4974604;28;20805;-73
2022/11/26 04:50:35;;;;;;;0.60;0.60;;;7.80;85.40;;;;;;4974769;28;20454;-73
2022/11/26 04:53:03;;;;;;;0.60;0.60;;;7.80;85.40;;;;;;4974796;28;20456;-73
2022/11/26 04:55:30;;;;;;;0.70;0.70;;;7.80;85.20;;;;;;4974766;28;20458;-73
2022/11/26 04:57:56;;;;;;;0.60;0.60;;;7.80;85.20;;;;;;4974766;28;20837;-72
2022/11/26 05:00:23;;;;;;;0.70;0.70;;;7.80;84.90;;;;;;4974547;28;20482;-73
2022/11/26 05:02:50;;;;;;;0.83;0.70;;;7.70;84.80;;;;;;4974390;28;20458;-73
2022/11/26 05:05:17;;;;;;;0.83;0.70;;;7.60;84.80;;;;;;4974439;28;20964;-73
2022/11/26 05:07:44;;;;;;;0.60;0.60;;;7.60;84.70;;;;;;4974456;28;20454;-73
2022/11/26 05:10:13;;;;;;;0.67;0.67;;;7.60;84.70;;;;;;4974497;28;20454;-72
2022/11/26 05:12:39;;;;;;;0.70;0.70;;;7.60;84.40;;;;;;4974508;28;20481;-73
2022/11/26 05:15:07;;;;;;;0.50;0.50;;;7.50;84.20;;;;;;4974558;28;20453;-73
2022/11/26 05:17:34;;;;;;;0.60;0.60;;;7.50;84.30;;;;;;4974537;28;20454;-73
2022/11/26 05:20:00;;;;;;;0.60;0.60;;;7.40;84.20;;;;;;4974147;28;21031;-72
2022/11/26 05:22:27;;;;;;;0.60;0.60;;;7.30;84.30;;;;;;4974377;28;20474;-73
2022/11/26 05:24:54;;;;;;;0.67;0.67;;;7.20;84.20;;;;;;4974216;28;20946;-73
2022/11/26 05:27:22;;;;;;;0.60;0.60;;;7.20;84.30;;;;;;4974465;28;20445;-73
2022/11/26 05:29:48;;;;;;;0.60;0.60;;;7.10;84.30;;;;;;4974189;28;20438;-73
2022/11/26 05:32:15;;;;;;;0.70;0.70;;;7.10;84.40;;;;;;4974362;28;20474;-72
2022/11/26 05:34:42;;;;;;;0.60;0.60;;;7.10;84.70;;;;;;4974385;28;20450;-73
2022/11/26 05:37:09;;;;;;;0.60;0.60;;;7.00;84.80;;;;;;4974393;28;20524;-72
2022/11/26 05:39:35;;;;;;;0.60;0.60;;;7.00;84.90;;;;;;4974281;28;20478;-71
2022/11/26 05:42:02;;;;;;;0.60;0.60;;;7.00;84.80;;;;;;4974278;28;20470;-73
2022/11/26 05:44:30;;;;;;;0.67;0.67;;;7.00;85.00;;;;;;4974303;28;20462;-73
2022/11/26 05:46:57;;;;;;;0.60;0.60;;;7.00;84.90;;;;;;4974313;28;20450;-73
2022/11/26 05:49:24;;;;;;;0.80;0.80;;;7.00;84.70;;;;;;4974318;28;20450;-73
2022/11/26 05:51:50;;;;;;;0.67;0.67;;;7.00;84.90;;;;;;4974155;28;20481;-73
2022/11/26 05:54:17;;;;;;;0.70;0.70;;;7.00;84.80;;;;;;4974269;28;20450;-73
2022/11/26 05:56:44;;;;;;;0.60;0.60;;;7.00;84.50;;;;;;4974282;28;20450;-73
2022/11/26 05:59:11;;;;;;;0.60;0.60;;;7.00;85.10;;;;;;4974176;28;20446;-73
2022/11/26 06:01:39;;;;;;;0.77;0.77;;;6.90;85.40;;;;;;4974225;28;20992;-73
2022/11/26 06:04:06;;;;;;;0.70;0.70;;;6.90;84.90;;;;;;4974155;28;20446;-73
2022/11/26 06:06:33;;;;;;;0.60;0.60;;;6.90;84.90;;;;;;4974075;28;20469;-70
2022/11/26 06:08:59;;;;;;;0.63;0.63;;;6.80;84.80;;;;;;4974112;28;20446;-71
2022/11/26 06:11:26;;;;;;;0.70;0.70;;;6.80;84.80;;;;;;4974015;28;20466;-71
2022/11/26 06:13:53;;;;;;;0.90;0.90;;;6.80;85.30;;;;;;4973928;28;20446;-73
2022/11/26 06:16:20;;;;;;;1.13;0.67;;;6.80;86.00;;;;;;4973942;28;20469;-73
2022/11/26 06:18:48;;;;;;;0.80;0.80;;;6.70;86.50;;;;;;4974053;28;20450;-73
2022/11/26 06:21:15;;;;;;;0.70;0.70;;;6.70;87.10;;;;;;4975893;28;20482;-73
2022/11/26 06:23:41;;;;;;;0.63;0.63;;;6.70;87.50;;;;;;4977422;28;20457;-73
2022/11/26 06:26:09;;;;;;;0.70;0.70;;;6.70;87.60;;;;;;4977385;28;20453;-73
2022/11/26 06:28:36;;;;;;;0.70;0.70;;;6.80;87.90;;;;;;4977418;28;20449;-73
2022/11/26 06:31:02;;;;;;;0.60;0.60;;;6.80;88.00;;;;;;4977306;28;20469;-73
2022/11/26 06:33:29;;;;;;;0.70;0.70;;;6.80;87.70;;;;;;4977348;28;20454;-73
2022/11/26 06:36:00;;;;;;;0.70;0.70;;;6.80;87.60;;;;;;4976948;28;20953;-73
2022/11/26 06:38:27;;;;;;;0.60;0.60;;;6.80;87.70;;;;;;4977304;28;20513;-73
2022/11/26 06:40:58;;;;;;;0.60;0.60;;;6.90;87.50;;;;;;4976807;28;20835;-73
2022/11/26 06:43:26;;;;;;;0.70;0.70;;;6.90;87.40;;;;;;4977190;28;20458;-73
2022/11/26 06:45:53;;;;;;;0.80;0.70;;;6.90;87.10;;;;;;4976853;28;20949;-73
2022/11/26 06:48:22;;;;;;;0.67;0.67;;;6.90;86.60;;;;;;4977040;28;20450;-73
2022/11/26 06:50:50;;;;;;;0.70;0.70;;;6.80;86.20;;;;;;4976919;28;20466;-73
2022/11/26 06:53:18;;;;;;;0.60;0.60;;;6.80;86.40;;;;;;4976654;28;20937;-73
2022/11/26 06:55:45;;;;;;;0.70;0.70;;;6.70;85.70;;;;;;4976934;28;20450;-73
2022/11/26 06:58:13;;;;;;;0.60;0.60;;;6.70;85.40;;;;;;4976904;28;20450;-73
2022/11/26 07:00:40;;;;;;;1.37;0.60;;;6.60;85.00;;;;;;4976309;28;20486;-72
2022/11/26 07:03:07;;;;;;;0.67;0.67;;;6.70;84.50;;;;;;4976880;28;20860;-77
2022/11/26 07:05:34;;;;;;;0.60;0.60;;;6.60;84.40;;;;;;4976773;28;20442;-72
2022/11/26 07:08:01;;;;;;;0.60;0.60;;;6.70;84.40;;;;;;4976669;28;20446;-76
2022/11/26 07:10:29;;;;;;;0.70;0.70;;;6.70;84.20;;;;;;4976554;28;20449;-74
2022/11/26 07:12:55;;;;;;;0.60;0.60;;;6.70;83.80;;;;;;4976629;28;20477;-74
2022/11/26 07:15:22;;;;;;;0.60;0.60;;;6.60;83.60;;;;;;4976581;28;20451;-73
2022/11/26 07:17:49;;;;;;;0.60;0.60;;;6.60;83.80;;;;;;4976549;28;20497;-74
2022/11/26 07:20:15;;;;;;;0.60;0.60;;;6.60;84.00;;;;;;4976443;28;20482;-74
2022/11/26 07:22:42;;;;;;;0.70;0.70;;;6.60;84.10;;;;;;4976390;28;20545;-74
2022/11/26 07:25:10;;;;;;;0.70;0.70;;;6.70;84.30;;;;;;4976404;28;20454;-74
2022/11/26 07:27:38;;;;;;;0.60;0.60;;;6.80;84.20;;;;;;4976332;28;20870;-74
2022/11/26 07:30:06;;;;;;;0.80;0.80;;;6.80;84.00;;;;;;4976071;28;20522;-74
2022/11/26 07:32:32;;;;;;;0.70;0.70;;;6.90;83.20;;;;;;4976030;28;20481;-74
2022/11/26 07:35:00;;;;;;;0.87;0.87;;;7.00;82.90;;;;;;4975891;28;20930;-74
2022/11/26 07:37:27;;;;;;;0.60;0.60;;;7.10;83.20;;;;;;4976162;28;20450;-74
2022/11/26 07:39:54;;;;;;;0.73;0.73;;;7.20;82.90;;;;;;4975720;28;20958;-73
2022/11/26 07:42:20;;;;;;;0.80;0.80;;;7.30;82.60;;;;;;4976043;28;20470;-74
2022/11/26 07:44:49;;;;;;;0.73;0.73;;;7.40;82.50;;;;;;4976058;28;20454;-74
2022/11/26 07:47:16;;;;;;;0.80;0.80;;;7.50;82.70;;;;;;4975998;28;20446;-74
2022/11/26 07:49:42;;;;;;;0.70;0.70;;;7.60;83.10;;;;;;4975713;28;20454;-72
2022/11/26 07:52:09;;;;;;;0.87;0.87;;;7.70;83.30;;;;;;4975886;28;20478;-74
2022/11/26 07:54:36;;;;;;;0.80;0.80;;;7.90;83.10;;;;;;4975920;28;20488;-74
2022/11/26 07:57:03;;;;;;;0.83;0.83;;;7.90;83.20;;;;;;4975788;28;20450;-74
2022/11/26 07:59:29;;;;;;;0.80;0.80;;;8.00;83.10;;;;;;4975732;28;20450;-76
2022/11/26 08:01:57;;;;;;;0.87;0.87;;;8.00;82.60;;;;;;4975307;28;20498;-76
2022/11/26 08:04:24;;;;;;;0.73;0.73;;;8.10;82.00;;;;;;4975721;28;20458;-76
2022/11/26 08:06:51;;;;;;;0.80;0.80;;;8.00;81.90;;;;;;4975653;28;20458;-76
2022/11/26 08:09:17;;;;;;;1.00;1.00;;;7.80;81.50;;;;;;4975588;28;20454;-75
2022/11/26 08:11:44;;;;;;;0.80;0.80;;;7.50;82.10;;;;;;4975478;28;20474;-76
2022/11/26 08:14:12;;;;;;;0.90;0.90;;;7.20;82.80;;;;;;4975540;28;20451;-76
2022/11/26 08:16:40;;;;;;;0.70;0.70;;;7.10;83.40;;;;;;4975475;28;20454;-76
2022/11/26 08:19:11;;;;;;;0.80;0.80;;;7.10;83.50;;;;;;4975429;28;20458;-76
2022/11/26 08:21:38;;;;;;;0.93;0.93;;;7.20;83.60;;;;;;4975221;28;20498;-76
2022/11/26 08:24:05;;;;;;;0.83;0.83;;;7.20;83.70;;;;;;4975382;28;20449;-76
2022/11/26 08:26:33;;;;;;;1.10;1.10;;;7.20;83.80;;;;;;4975267;28;20455;-74
2022/11/26 08:29:00;;;;;;;0.83;0.83;;;7.30;84.20;;;;;;4975197;28;20450;-75
2022/11/26 08:31:27;;;;;;;0.90;0.90;;;7.40;84.50;;;;;;4974854;28;20969;-74
2022/11/26 08:33:56;;;;;;;0.90;0.90;;;7.40;84.70;;;;;;4975148;28;20450;-74
2022/11/26 08:36:25;;;;;;;1.00;1.00;;;7.50;84.70;;;;;;4974734;28;20926;-74
2022/11/26 08:38:51;;;;;;;0.90;0.90;;;7.60;85.00;;;;;;4974744;28;20938;-74
2022/11/26 08:41:18;;;;;;;1.00;1.00;;;7.70;85.20;;;;;;4974932;28;20494;-73
2022/11/26 08:43:45;;;;;;;1.90;1.90;;;7.70;85.10;;;;;;4974533;28;20451;-75
2022/11/26 08:46:12;;;;;;;1.87;1.87;;;7.80;85.00;;;;;;4974758;28;20852;-74
2022/11/26 08:48:39;;;;;;;2.10;2.10;;;7.80;85.00;;;;;;4974895;28;20446;-75
2022/11/26 08:51:08;;;;;;;2.10;2.10;;;7.80;85.10;;;;;;4974488;28;21074;-73
2022/11/26 08:53:36;;;;;;;1.27;1.27;;;7.90;84.90;;;;;;4974774;28;20454;-73
2022/11/26 08:56:05;;;;;;;1.20;1.20;;;7.90;84.80;;;;;;4974445;28;20942;-76
2022/11/26 08:58:33;;;;;;;0.90;0.90;;;7.80;84.70;;;;;;4974921;28;20450;-75
2022/11/26 09:01:06;;;;;;;1.17;1.17;;;7.70;84.90;;;;;;4974494;28;20873;-78
2022/11/26 09:03:33;;;;;;;1.70;1.70;;;7.80;85.40;;;;;;4974780;28;20450;-75
2022/11/26 09:06:01;;;;;;;1.70;1.60;;;7.90;85.70;;;;;;4974824;28;20458;-76
2022/11/26 09:08:27;;;;;;;1.00;1.00;;;8.00;85.70;;;;;;4974648;28;20446;-76
2022/11/26 09:10:56;;;;;;;0.80;0.80;;;8.20;85.90;;;;;;4974440;28;21032;-73
2022/11/26 09:13:23;;;;;;;0.70;0.70;;;8.20;85.50;;;;;;4974751;28;20457;-77
2022/11/26 09:15:50;;;;;;;0.80;0.80;;;8.20;86.20;;;;;;4974351;28;20451;-75
2022/11/26 09:18:17;;;;;;;0.73;0.73;;;8.10;87.20;;;;;;4974264;28;20957;-75
2022/11/26 09:20:43;;;;;;;0.73;0.73;;;8.00;87.60;;;;;;4974359;28;20486;-77
2022/11/26 09:23:10;;;;;;;0.80;0.80;;;7.80;89.20;;;;;;4974347;28;20934;-74
2022/11/26 09:25:38;;;;;;;0.70;0.70;;;7.60;89.20;;;;;;4974502;28;20452;-75
2022/11/26 09:28:06;;;;;;;0.93;0.93;;;7.50;90.10;;;;;;4974175;28;20481;-75
2022/11/26 09:30:33;;;;;;;0.70;0.70;;;7.60;90.00;;;;;;4974153;28;20954;-75
2022/11/26 09:33:00;;;;;;;0.90;0.90;;;7.40;90.10;;;;;;4974395;28;20450;-75
2022/11/26 09:35:27;;;;;;;0.70;0.70;;;7.40;91.30;;;;;;4974542;28;20450;-76
2022/11/26 09:37:54;;;;;;;0.87;0.87;;;7.50;90.70;;;;;;4974530;28;20449;-75
2022/11/26 09:40:40;;;;;;;0.70;0.70;;;7.50;90.20;;;;;;4974397;28;20557;-75
2022/11/26 09:43:17;;;;;;;1.20;1.10;;;7.50;91.40;;;;;;4974423;28;20435;-75
2022/11/26 09:45:49;;;;;;;0.73;0.73;;;7.70;91.40;;;;;;4974403;28;20466;-73
2022/11/26 09:48:20;;;;;;;0.80;0.80;;;7.90;90.80;;;;;;4974389;28;20493;-73
2022/11/26 09:50:49;;;;;;;0.77;0.77;;;8.00;90.80;;;;;;4973977;28;20998;-73
2022/11/26 09:53:20;;;;;;;0.97;0.97;;;8.10;90.50;;;;;;4974244;28;20458;-73
2022/11/26 09:55:50;;;;;;;0.70;0.70;;;8.10;90.80;;;;;;4975348;28;20910;-73
2022/11/26 09:58:21;;;;;;;0.70;0.70;;;8.10;90.40;;;;;;4977734;28;20945;-72
2022/11/26 10:00:50;;;;;;;0.80;0.80;;;8.20;90.20;;;;;;4977478;28;20501;-74
2022/11/26 10:03:19;;;;;;;1.00;1.00;;;8.20;90.00;;;;;;4977991;28;20442;-72
2022/11/26 10:05:53;;;;;;;0.80;0.80;;;8.20;89.30;;;;;;4977554;28;20934;-73
2022/11/26 10:08:41;;;;;;;0.90;0.90;;;8.00;89.40;;;;;;4977508;28;20941;-72
2022/11/26 10:11:15;;;;;;;0.73;0.73;;;8.00;90.10;;;;;;4977730;28;20473;-72
2022/11/26 10:14:02;;;;;;;1.10;1.10;;;8.40;88.80;;;;;;4978071;28;20434;-71
2022/11/26 10:16:38;;;;;;;0.90;0.90;;;9.00;86.80;;;;;;4977607;28;20434;-74
2022/11/26 10:19:12;;;;;;;0.80;0.80;;;9.60;84.90;;;;;;4977683;28;20438;-73
2022/11/26 10:21:42;;;;;;;0.70;0.70;;;9.80;83.50;;;;;;4977471;28;20486;-73
2022/11/26 10:24:16;;;;;;;1.00;1.00;;;9.80;83.40;;;;;;4977595;28;20453;-74
2022/11/26 10:26:43;;;;;;;0.90;0.90;;;9.70;82.90;;;;;;4978253;28;20838;-73
2022/11/26 10:29:22;;;;;;;0.90;0.90;;;9.70;83.50;;;;;;4978293;28;20454;-72
2022/11/26 10:31:52;;;;;;;0.87;0.87;;;9.40;84.80;;;;;;4977293;28;20461;-73
2022/11/26 10:34:23;;;;;;;0.83;0.83;;;9.40;85.90;;;;;;4977532;28;20430;-72
2022/11/26 10:36:51;;;;;;;0.70;0.70;;;9.40;84.80;;;;;;4977360;28;20828;-72
2022/11/26 10:39:20;;;;;;;0.63;0.63;;;9.50;84.20;;;;;;4976970;28;20946;-72
2022/11/26 10:41:47;;;;;;;1.20;0.73;;;9.70;84.20;;;;;;4976780;28;20573;-73
2022/11/26 10:44:38;;;;;;;0.87;0.70;;;9.70;83.00;;;;;;4977192;28;20454;-72
2022/11/26 10:47:23;;;;;;;1.00;1.00;;;10.00;82.50;;;;;;4977713;28;20449;-73
2022/11/26 10:49:51;;;;;;;0.70;0.70;;;10.50;81.30;;;;;;4977107;28;20446;-68
2022/11/26 10:52:21;;;;;;;0.87;0.87;;;11.00;81.30;;;;;;4976940;28;20462;-74
2022/11/26 10:55:09;;;;;;;0.70;0.70;;;11.60;78.90;;;;;;4977037;28;20854;-72
2022/11/26 10:57:42;;;;;;;1.03;1.03;;;11.80;77.00;;;;;;4976999;28;20430;-73
2022/11/26 11:00:36;;;;;;;0.90;0.90;;;11.40;76.60;;;;;;4976698;28;20915;-72
2022/11/26 11:03:05;;;;;;;0.80;0.80;;;11.00;78.00;;;;;;4976854;28;20470;-72
2022/11/26 11:05:33;;;;;;;0.93;0.93;;;10.90;79.20;;;;;;4976663;28;20453;-72
2022/11/26 11:08:00;;;;;;;1.00;1.00;;;10.90;79.60;;;;;;4976058;28;20960;-71
2022/11/26 11:10:26;;;;;;;0.87;0.87;;;10.90;79.20;;;;;;4976709;28;20509;-72
2022/11/26 11:13:03;;;;;;;0.80;0.80;;;10.70;79.70;;;;;;4976691;28;20442;-72
2022/11/26 11:15:34;;;;;;;0.90;0.90;;;10.70;79.90;;;;;;4976605;28;20441;-72
2022/11/26 11:18:03;;;;;;;0.73;0.73;;;10.80;78.50;;;;;;4976589;28;20438;-72
2022/11/26 11:20:33;;;;;;;0.87;0.80;;;10.90;76.90;;;;;;4976416;28;20456;-72
2022/11/26 11:23:22;;;;;;;0.80;0.80;;;10.90;76.40;;;;;;4976696;28;20564;-71
2022/11/26 11:25:59;;;;;;;0.70;0.70;;;10.90;76.50;;;;;;4973567;28;20540;-72
2022/11/26 11:28:28;;;;;;;1.03;0.90;;;10.90;77.00;;;;;;4976513;28;20430;-72
2022/11/26 11:31:04;;;;;;;0.60;0.60;;;11.00;76.80;;;;;;4976315;28;20469;-72
2022/11/26 11:33:31;;;;;;;0.80;0.80;;;11.10;76.50;;;;;;4976403;28;20436;-72
2022/11/26 11:36:14;;;;;;;0.80;0.80;;;11.30;77.00;;;;;;4976286;28;20453;-72
2022/11/26 11:38:47;;;;;;;1.00;1.00;;;11.40;75.50;;;;;;4976251;28;20426;-72
2022/11/26 11:41:23;;;;;;;0.80;0.80;;;11.60;74.70;;;;;;4976103;28;20572;-72
2022/11/26 11:43:50;;;;;;;0.70;0.70;;;11.30;74.70;;;;;;4976122;28;20434;-72
2022/11/26 11:46:43;;;;;;;0.80;0.80;;;11.40;75.50;;;;;;4976047;28;20446;-71
2022/11/26 11:49:18;;;;;;;0.80;0.80;;;11.80;74.70;;;;;;4976068;28;20434;-72
2022/11/26 11:51:57;;;;;;;0.70;0.70;;;12.00;74.30;;;;;;4975958;28;20465;-72
2022/11/26 11:54:29;;;;;;;0.80;0.80;;;12.30;72.80;;;;;;4976053;28;20439;-72
2022/11/26 11:57:06;;;;;;;0.70;0.70;;;12.90;71.80;;;;;;4975640;28;20833;-73
2022/11/26 12:00:09;;;;;;;0.70;0.70;;;13.60;69.60;;;;;;4975821;28;20430;-73
2022/11/26 12:02:59;;;;;;;0.70;0.70;;;14.30;67.10;;;;;;4975295;28;20493;-73
2022/11/26 12:05:35;;;;;;;0.70;0.70;;;15.70;64.50;;;;;;4956059;28;20485;-72
2022/11/26 12:08:12;;;;;;;0.70;0.70;;;16.70;61.70;;;;;;4975886;28;20430;-73
2022/11/26 12:11:23;;;;;;;0.70;0.70;;;18.60;56.50;;;;;;4975528;28;20445;-73
2022/11/26 12:13:54;;;;;;;0.60;0.60;;;21.70;50.30;;;;;;4975550;28;20430;-74
2022/11/26 12:16:27;;;;;;;0.60;0.60;;;24.40;44.70;;;;;;4975563;28;20513;-74
2022/11/26 12:19:00;;;;;;;0.70;0.70;;;26.90;41.60;;;;;;4974642;28;20439;-74
2022/11/26 12:21:35;;;;;;;0.77;0.60;;;29.50;38.50;;;;;;4975321;28;20497;-74
2022/11/26 12:24:07;;;;;;;0.60;0.60;;;31.30;33.70;;;;;;4975385;28;20438;-74
2022/11/26 12:26:38;;;;;;;0.80;0.80;;;32.70;33.40;;;;;;4975365;28;20435;-73
2022/11/26 12:29:11;;;;;;;0.50;0.50;;;34.40;31.40;;;;;;4974943;28;20969;-74
2022/11/26 12:31:43;;;;;;;0.60;0.60;;;35.90;29.30;;;;;;4975195;28;20493;-74
2022/11/26 12:34:20;;;;;;;0.60;0.60;;;37.00;27.90;;;;;;4974901;28;20788;-74
2022/11/26 12:36:53;;;;;;;0.60;0.60;;;37.90;26.90;;;;;;4975203;28;20438;-74
2022/11/26 12:39:35;;;;;;;0.60;0.60;;;38.30;26.20;;;;;;4975135;28;20434;-74
2022/11/26 12:42:07;;;;;;;0.60;0.60;;;37.00;26.40;;;;;;4974957;28;20497;-73
2022/11/26 12:44:37;;;;;;;0.67;0.60;;;33.90;28.40;;;;;;4975074;28;20427;-73
2022/11/26 12:47:12;;;;;;;0.70;0.70;;;30.30;31.20;;;;;;4975393;28;20442;-73
2022/11/26 12:49:47;;;;;;;0.60;0.60;;;27.50;34.00;;;;;;4975019;28;20434;-73
2022/11/26 12:52:29;;;;;;;0.70;0.70;;;24.70;38.10;;;;;;4974846;28;20468;-74
2022/11/26 12:55:07;;;;;;;0.60;0.60;;;22.30;41.80;;;;;;4974929;28;20458;-73
2022/11/26 12:57:39;;;;;;;0.60;0.60;;;20.50;44.20;;;;;;4974877;28;20430;-73
2022/11/26 13:00:11;;;;;;;0.60;0.60;;;18.80;46.90;;;;;;4974778;28;20442;-73
2022/11/26 13:02:41;;;;;;;0.70;0.60;;;17.50;49.90;;;;;;4974418;28;20604;-73
2022/11/26 13:05:16;;;;;;;0.60;0.60;;;16.20;52.80;;;;;;4975431;28;20470;-72
2022/11/26 13:08:13;;;;;;;0.73;0.73;;;15.60;54.20;;;;;;4974757;28;20484;-72
2022/11/26 13:10:57;;;;;;;0.60;0.60;;;16.20;55.10;;;;;;4974596;28;20450;-72
2022/11/26 13:13:37;;;;;;;0.60;0.60;;;19.00;51.50;;;;;;4974751;28;20434;-73
2022/11/26 13:16:11;;;;;;;0.70;0.70;;;22.50;43.80;;;;;;4974419;28;20856;-73
2022/11/26 13:18:43;;;;;;;0.60;0.60;;;25.40;39.70;;;;;;4974687;28;20508;-73
2022/11/26 13:21:24;;;;;;;0.60;0.60;;;28.00;35.50;;;;;;4974578;28;20477;-74
2022/11/26 13:24:10;;;;;;;0.67;0.67;;;30.00;32.50;;;;;;4974585;28;20431;-73
2022/11/26 13:26:50;;;;;;;0.70;0.70;;;31.40;31.30;;;;;;4974619;28;20430;-74
2022/11/26 13:29:28;;;;;;;0.70;0.70;;;32.30;30.30;;;;;;4975282;28;20438;-74
2022/11/26 13:32:14;;;;;;;0.60;0.60;;;32.50;30.00;;;;;;4978535;28;20461;-74
2022/11/26 13:35:00;;;;;;;0.50;0.50;;;32.90;29.70;;;;;;4978486;28;20433;-75
2022/11/26 13:37:44;;;;;;;0.60;0.60;;;33.50;28.60;;;;;;4978458;28;20439;-75
2022/11/26 13:40:32;;;;;;;0.60;0.60;;;33.00;29.30;;;;;;4978391;28;20431;-74
2022/11/26 13:43:23;;;;;;;0.60;0.60;;;33.70;29.10;;;;;;4978871;28;20473;-75
2022/11/26 13:46:12;;;;;;;0.70;0.70;;;34.30;28.60;;;;;;4978268;28;20437;-75
2022/11/26 13:48:46;;;;;;;0.70;0.70;;;34.60;27.50;;;;;;4977844;28;20434;-74
2022/11/26 13:51:22;;;;;;;0.60;0.60;;;34.60;27.60;;;;;;4978159;28;20469;-75
2022/11/26 13:53:54;;;;;;;0.60;0.60;;;34.50;27.90;;;;;;4978220;28;20426;-75
2022/11/26 13:56:24;;;;;;;0.73;0.60;;;34.10;27.70;;;;;;4978224;28;20437;-75
2022/11/26 13:58:57;;;;;;;0.70;0.70;;;34.00;28.00;;;;;;4978042;28;20453;-74
2022/11/26 14:01:29;;;;;;;0.70;0.70;;;34.00;27.90;;;;;;4977796;28;20486;-74
2022/11/26 14:03:57;;;;;;;0.70;0.70;;;33.50;28.30;;;;;;4977957;28;20447;-75
2022/11/26 14:06:24;;;;;;;0.60;0.60;;;32.80;29.10;;;;;;4977936;28;20450;-74
2022/11/26 14:08:53;;;;;;;0.50;0.50;;;31.70;29.60;;;;;;4980038;28;20449;-74
2022/11/26 14:11:55;;;;;;;0.60;0.60;;;30.50;30.10;;;;;;4981133;28;20473;-73
2022/11/26 14:14:33;;;;;;;0.60;0.60;;;29.50;32.10;;;;;;4980903;28;20434;-74
2022/11/26 14:17:20;;;;;;;0.70;0.70;;;28.70;32.90;;;;;;4981791;28;20540;-75
2022/11/26 14:20:07;;;;;;;0.67;0.67;;;27.80;33.10;;;;;;4982340;28;20462;-74
2022/11/26 14:22:36;;;;;;;0.60;0.60;;;26.80;33.40;;;;;;4981549;28;20501;-74
2022/11/26 14:25:06;;;;;;;0.60;0.60;;;25.80;34.60;;;;;;4983142;28;20941;-73
2022/11/26 14:27:35;;;;;;;0.60;0.60;;;24.50;37.40;;;;;;4983478;28;20442;-73
2022/11/26 14:30:23;;;;;;;0.70;0.70;;;22.70;39.10;;;;;;4982322;28;20472;-74
2022/11/26 14:32:55;;;;;;;0.70;0.70;;;20.80;41.20;;;;;;4981885;28;20438;-74
2022/11/26 14:35:25;;;;;;;0.70;0.70;;;19.20;44.60;;;;;;4982144;28;20527;-73
2022/11/26 14:37:54;;;;;;;0.50;0.50;;;18.30;47.60;;;;;;4982142;28;20434;-74
2022/11/26 14:40:25;;;;;;;0.60;0.60;;;17.50;48.40;;;;;;4981158;28;20477;-75
2022/11/26 14:43:13;;;;;;;0.60;0.60;;;16.70;50.10;;;;;;4981433;28;20480;-74
2022/11/26 14:45:40;;;;;;;0.60;0.60;;;16.00;52.40;;;;;;4978249;28;20458;-74
2022/11/26 14:48:18;;;;;;;0.80;0.80;;;15.50;53.80;;;;;;4977136;28;20450;-74
2022/11/26 14:50:45;;;;;;;0.80;0.80;;;15.00;55.60;;;;;;4977164;28;20470;-74
2022/11/26 14:53:12;;;;;;;0.70;0.70;;;14.60;57.20;;;;;;4977180;28;20501;-74
2022/11/26 14:55:43;;;;;;;0.60;0.60;;;14.30;58.00;;;;;;4977025;28;20450;-74
2022/11/26 14:58:15;;;;;;;0.77;0.77;;;13.90;59.90;;;;;;4977244;28;20431;-74
2022/11/26 15:00:42;;;;;;;0.70;0.70;;;13.70;61.30;;;;;;4981889;28;20442;-74
2022/11/26 15:03:22;;;;;;;0.80;0.80;;;13.40;63.20;;;;;;4982208;28;20470;-74
2022/11/26 15:05:48;;;;;;;0.90;0.90;;;13.20;64.50;;;;;;4979659;28;20438;-74
2022/11/26 15:08:18;;;;;;;0.67;0.67;;;13.10;65.70;;;;;;4979476;28;20455;-73
2022/11/26 15:10:51;;;;;;;0.93;0.80;;;12.90;66.00;;;;;;4980432;28;20482;-73
2022/11/26 15:13:24;;;;;;;0.83;0.83;;;12.70;66.40;;;;;;4979781;28;20430;-73
2022/11/26 15:15:53;;;;;;;0.70;0.70;;;12.50;67.10;;;;;;4979355;28;20431;-74
2022/11/26 15:18:21;;;;;;;0.83;0.83;;;12.40;68.00;;;;;;4979534;28;20855;-73
2022/11/26 15:20:51;;;;;;;1.10;1.10;;;12.30;68.80;;;;;;4977841;28;20469;-74
2022/11/26 15:23:18;;;;;;;0.80;0.80;;;12.20;69.40;;;;;;4976445;28;20580;-73
2022/11/26 15:25:50;;;;;;;0.80;0.80;;;12.10;70.00;;;;;;4976164;28;20941;-74
2022/11/26 15:28:19;;;;;;;0.80;0.80;;;12.00;70.50;;;;;;4976491;28;20442;-74
2022/11/26 15:30:55;;;;;;;1.23;1.23;;;11.90;71.10;;;;;;4975995;28;20977;-74
2022/11/26 15:33:22;;;;;;;0.90;0.90;;;11.70;71.50;;;;;;4976379;28;20434;-74
2022/11/26 15:35:55;;;;;;;0.83;0.83;;;11.60;71.90;;;;;;4976231;28;20458;-74
2022/11/26 15:38:22;;;;;;;0.90;0.90;;;11.50;72.20;;;;;;4976255;28;20435;-74
2022/11/26 15:40:52;;;;;;;0.80;0.80;;;11.40;72.70;;;;;;4976118;28;20473;-74
2022/11/26 15:43:24;;;;;;;1.00;0.83;;;11.20;73.10;;;;;;4976042;28;21005;-74
2022/11/26 15:45:52;;;;;;;1.10;1.10;;;11.10;73.50;;;;;;4976116;28;20446;-74
2022/11/26 15:48:22;;;;;;;1.20;1.20;;;11.00;73.90;;;;;;4975719;28;20969;-74
2022/11/26 15:50:52;;;;;;;0.90;0.90;;;10.90;74.20;;;;;;4976024;28;20474;-74
2022/11/26 15:53:24;;;;;;;0.93;0.93;;;10.80;74.60;;;;;;4975832;28;20446;-74
2022/11/26 15:55:53;;;;;;;1.20;1.10;;;10.70;74.80;;;;;;4977476;28;20442;-74
2022/11/26 15:58:22;;;;;;;0.90;0.90;;;10.70;75.00;;;;;;4978520;28;20954;-74
2022/11/26 16:00:52;;;;;;;1.00;1.00;;;10.50;75.30;;;;;;4978844;28;20478;-73
2022/11/26 16:03:49;;;;;;;1.07;1.07;;;10.40;75.60;;;;;;4978898;28;20478;-74
2022/11/26 16:06:28;;;;;;;0.90;0.90;;;10.40;75.70;;;;;;4938681;29;20456;-73
2022/11/26 16:09:01;;;;;;;1.00;1.00;;;10.30;75.90;;;;;;4971593;28;20462;-73
2022/11/26 16:11:30;;;;;;;0.73;0.73;;;10.20;76.10;;;;;;4978906;28;20530;-74
2022/11/26 16:13:57;;;;;;;0.80;0.80;;;10.10;76.40;;;;;;4980141;28;20455;-74
2022/11/26 16:16:25;;;;;;;0.93;0.93;;;10.00;76.60;;;;;;4978971;28;20446;-73
2022/11/26 16:18:57;;;;;;;1.00;1.00;;;10.00;76.80;;;;;;4980002;28;20457;-72
2022/11/26 16:21:27;;;;;;;0.90;0.90;;;9.90;76.90;;;;;;4980412;28;20484;-74
2022/11/26 16:23:57;;;;;;;1.10;1.10;;;9.80;77.10;;;;;;4979236;28;20486;-73
2022/11/26 16:26:24;;;;;;;1.10;1.10;;;9.80;77.10;;;;;;4979591;28;20430;-74
2022/11/26 16:28:53;;;;;;;1.03;1.03;;;9.70;77.20;;;;;;4978775;28;20461;-74
2022/11/26 16:31:20;;;;;;;0.83;0.83;;;9.70;77.20;;;;;;4978661;28;20838;-73
2022/11/26 16:33:46;;;;;;;1.30;1.30;;;9.60;77.40;;;;;;4978957;28;20489;-73
2022/11/26 16:36:23;;;;;;;1.00;1.00;;;9.60;77.60;;;;;;4977936;28;20454;-73
2022/11/26 16:38:51;;;;;;;1.30;1.20;;;9.50;77.70;;;;;;4978457;28;20763;-72
2022/11/26 16:41:20;;;;;;;1.00;1.00;;;9.50;77.90;;;;;;4977520;28;20477;-73
2022/11/26 16:43:47;;;;;;;1.47;1.47;;;9.40;77.90;;;;;;4977073;28;20486;-72
2022/11/26 16:46:17;;;;;;;1.30;1.30;;;9.40;77.90;;;;;;4976882;28;20450;-72
2022/11/26 16:48:45;;;;;;;0.97;0.97;;;9.40;78.10;;;;;;4977254;28;20461;-72
2022/11/26 16:51:12;;;;;;;0.90;0.90;;;9.30;78.20;;;;;;4976613;28;20476;-72
2022/11/26 16:53:39;;;;;;;0.90;0.90;;;9.20;78.50;;;;;;4977352;28;20938;-72
2022/11/26 16:56:15;;;;;;;1.20;1.10;;;9.20;78.40;;;;;;4977319;28;20450;-72
2022/11/26 16:58:43;;;;;;;1.00;1.00;;;9.20;78.60;;;;;;4977463;28;20914;-73
2022/11/26 17:01:10;;;;;;;1.37;1.30;;;9.10;78.80;;;;;;4977122;28;20490;-73
2022/11/26 17:03:38;;;;;;;1.10;1.00;;;9.00;79.10;;;;;;4976317;28;20854;-73
2022/11/26 17:06:12;;;;;;;1.10;1.10;;;9.00;79.10;;;;;;4976617;28;20810;-74
2022/11/26 17:08:39;;;;;;;1.20;1.20;;;9.00;79.40;;;;;;4976609;28;20441;-73
2022/11/26 17:11:06;;;;;;;1.20;1.20;;;8.90;79.50;;;;;;4976994;28;20478;-73
2022/11/26 17:13:33;;;;;;;1.20;1.20;;;8.90;79.70;;;;;;4976604;28;20449;-73